sensor_id;sensor_type;location;lat;lon;timestamp;P1;durP1;ratioP1;P2;durP2;ratioP2
68951;SDS011;56000;51.146;17.112;2023-08-30T00:01:59;8.10;;;4.00;;
68951;SDS011;56000;51.146;17.112;2023-08-30T00:04:32;6.40;;;4.10;;
68951;SDS011;56000;51.146;17.112;2023-08-30T00:07:06;6.90;;;4.10;;
68951;SDS011;56000;51.146;17.112;2023-08-30T00:09:40;6.40;;;3.90;;
68951;SDS011;56000;51.146;17.112;2023-08-30T00:12:15;5.20;;;3.70;;
68951;SDS011;56000;51.146;17.112;2023-08-30T00:14:48;4.70;;;3.50;;
68951;SDS011;56000;51.146;17.112;2023-08-30T00:17:21;4.90;;;3.70;;
68951;SDS011;56000;51.146;17.112;2023-08-30T00:19:55;5.00;;;3.70;;
68951;SDS011;56000;51.146;17.112;2023-08-30T00:22:28;7.10;;;3.70;;
68951;SDS011;56000;51.146;17.112;2023-08-30T00:25:01;5.60;;;4.20;;
68951;SDS011;56000;51.146;17.112;2023-08-30T00:27:34;5.50;;;4.00;;
68951;SDS011;56000;51.146;17.112;2023-08-30T00:30:10;5.90;;;3.90;;
68951;SDS011;56000;51.146;17.112;2023-08-30T00:32:44;9.40;;;4.00;;
68951;SDS011;56000;51.146;17.112;2023-08-30T00:35:17;4.50;;;3.30;;
68951;SDS011;56000;51.146;17.112;2023-08-30T00:37:50;6.20;;;3.40;;
68951;SDS011;56000;51.146;17.112;2023-08-30T00:40:25;6.50;;;3.60;;
68951;SDS011;56000;51.146;17.112;2023-08-30T00:43:00;7.90;;;3.20;;
68951;SDS011;56000;51.146;17.112;2023-08-30T00:45:33;7.10;;;3.10;;
68951;SDS011;56000;51.146;17.112;2023-08-30T00:48:08;3.90;;;2.70;;
68951;SDS011;56000;51.146;17.112;2023-08-30T00:50:43;3.70;;;2.80;;
68951;SDS011;56000;51.146;17.112;2023-08-30T00:53:16;5.20;;;2.80;;
68951;SDS011;56000;51.146;17.112;2023-08-30T00:55:50;3.60;;;2.80;;
68951;SDS011;56000;51.146;17.112;2023-08-30T00:58:23;4.40;;;2.10;;
68951;SDS011;56000;51.146;17.112;2023-08-30T01:00:57;2.20;;;2.00;;
68951;SDS011;56000;51.146;17.112;2023-08-30T01:03:31;2.70;;;2.30;;
68951;SDS011;56000;51.146;17.112;2023-08-30T01:06:04;4.70;;;2.30;;
68951;SDS011;56000;51.146;17.112;2023-08-30T01:08:39;3.50;;;2.10;;
68951;SDS011;56000;51.146;17.112;2023-08-30T01:11:16;4.40;;;2.40;;
68951;SDS011;56000;51.146;17.112;2023-08-30T01:13:58;3.20;;;2.20;;
68951;SDS011;56000;51.146;17.112;2023-08-30T01:16:36;4.90;;;2.20;;
68951;SDS011;56000;51.146;17.112;2023-08-30T01:19:26;3.40;;;2.30;;
68951;SDS011;56000;51.146;17.112;2023-08-30T01:22:11;3.10;;;2.20;;
68951;SDS011;56000;51.146;17.112;2023-08-30T01:25:06;2.60;;;2.40;;
68951;SDS011;56000;51.146;17.112;2023-08-30T01:27:47;5.10;;;2.60;;
68951;SDS011;56000;51.146;17.112;2023-08-30T01:30:22;4.90;;;2.40;;
68951;SDS011;56000;51.146;17.112;2023-08-30T01:32:58;5.80;;;2.70;;
68951;SDS011;56000;51.146;17.112;2023-08-30T01:35:33;5.80;;;2.50;;
68951;SDS011;56000;51.146;17.112;2023-08-30T01:38:09;5.90;;;2.70;;
68951;SDS011;56000;51.146;17.112;2023-08-30T01:40:44;3.50;;;2.90;;
68951;SDS011;56000;51.146;17.112;2023-08-30T01:43:19;3.70;;;2.80;;
68951;SDS011;56000;51.146;17.112;2023-08-30T01:45:53;3.20;;;2.80;;
68951;SDS011;56000;51.146;17.112;2023-08-30T01:48:27;7.30;;;2.60;;
68951;SDS011;56000;51.146;17.112;2023-08-30T01:51:04;4.50;;;2.70;;
68951;SDS011;56000;51.146;17.112;2023-08-30T01:53:38;5.30;;;2.90;;
68951;SDS011;56000;51.146;17.112;2023-08-30T01:56:11;5.80;;;2.80;;
68951;SDS011;56000;51.146;17.112;2023-08-30T01:58:44;4.80;;;2.70;;
68951;SDS011;56000;51.146;17.112;2023-08-30T02:01:17;3.80;;;2.70;;
68951;SDS011;56000;51.146;17.112;2023-08-30T02:03:51;3.40;;;2.80;;
68951;SDS011;56000;51.146;17.112;2023-08-30T02:06:26;5.20;;;2.80;;
68951;SDS011;56000;51.146;17.112;2023-08-30T02:09:07;2.90;;;2.60;;
68951;SDS011;56000;51.146;17.112;2023-08-30T02:11:46;3.40;;;2.50;;
68951;SDS011;56000;51.146;17.112;2023-08-30T02:14:21;3.70;;;2.20;;
68951;SDS011;56000;51.146;17.112;2023-08-30T02:16:58;8.30;;;2.40;;
68951;SDS011;56000;51.146;17.112;2023-08-30T02:19:31;3.10;;;2.20;;
68951;SDS011;56000;51.146;17.112;2023-08-30T02:22:05;3.80;;;2.30;;
68951;SDS011;56000;51.146;17.112;2023-08-30T02:24:38;9.20;;;2.40;;
68951;SDS011;56000;51.146;17.112;2023-08-30T02:27:11;3.00;;;2.10;;
68951;SDS011;56000;51.146;17.112;2023-08-30T02:29:44;2.30;;;2.10;;
68951;SDS011;56000;51.146;17.112;2023-08-30T02:32:17;3.00;;;2.30;;
68951;SDS011;56000;51.146;17.112;2023-08-30T02:34:51;2.40;;;2.20;;
68951;SDS011;56000;51.146;17.112;2023-08-30T02:37:25;2.20;;;2.00;;
68951;SDS011;56000;51.146;17.112;2023-08-30T02:39:58;2.60;;;2.10;;
68951;SDS011;56000;51.146;17.112;2023-08-30T02:42:33;3.80;;;2.40;;
68951;SDS011;56000;51.146;17.112;2023-08-30T02:45:08;2.00;;;1.80;;
68951;SDS011;56000;51.146;17.112;2023-08-30T02:47:41;3.90;;;2.00;;
68951;SDS011;56000;51.146;17.112;2023-08-30T02:50:16;2.10;;;1.90;;
68951;SDS011;56000;51.146;17.112;2023-08-30T02:52:49;3.10;;;2.20;;
68951;SDS011;56000;51.146;17.112;2023-08-30T02:55:23;2.20;;;2.00;;
68951;SDS011;56000;51.146;17.112;2023-08-30T02:57:56;4.50;;;2.20;;
68951;SDS011;56000;51.146;17.112;2023-08-30T03:00:29;2.60;;;2.00;;
68951;SDS011;56000;51.146;17.112;2023-08-30T03:03:05;3.30;;;1.90;;
68951;SDS011;56000;51.146;17.112;2023-08-30T03:05:38;2.00;;;1.80;;
68951;SDS011;56000;51.146;17.112;2023-08-30T03:08:11;3.00;;;2.10;;
68951;SDS011;56000;51.146;17.112;2023-08-30T03:10:45;2.00;;;1.80;;
68951;SDS011;56000;51.146;17.112;2023-08-30T03:13:18;1.90;;;1.80;;
68951;SDS011;56000;51.146;17.112;2023-08-30T03:15:51;4.40;;;1.80;;
68951;SDS011;56000;51.146;17.112;2023-08-30T03:18:25;5.10;;;2.20;;
68951;SDS011;56000;51.146;17.112;2023-08-30T03:21:02;2.90;;;2.00;;
68951;SDS011;56000;51.146;17.112;2023-08-30T03:23:35;3.30;;;1.80;;
68951;SDS011;56000;51.146;17.112;2023-08-30T03:26:11;2.50;;;2.10;;
68951;SDS011;56000;51.146;17.112;2023-08-30T03:28:45;3.50;;;2.30;;
68951;SDS011;56000;51.146;17.112;2023-08-30T03:31:19;5.00;;;2.40;;
68951;SDS011;56000;51.146;17.112;2023-08-30T03:33:53;4.20;;;2.10;;
68951;SDS011;56000;51.146;17.112;2023-08-30T03:36:26;1.70;;;1.60;;
68951;SDS011;56000;51.146;17.112;2023-08-30T03:38:59;5.00;;;2.80;;
68951;SDS011;56000;51.146;17.112;2023-08-30T03:41:33;5.00;;;2.90;;
68951;SDS011;56000;51.146;17.112;2023-08-30T03:44:07;3.20;;;2.50;;
68951;SDS011;56000;51.146;17.112;2023-08-30T03:46:41;4.30;;;3.40;;
68951;SDS011;56000;51.146;17.112;2023-08-30T03:49:14;5.40;;;3.20;;
68951;SDS011;56000;51.146;17.112;2023-08-30T03:51:48;3.60;;;2.70;;
68951;SDS011;56000;51.146;17.112;2023-08-30T03:54:21;6.60;;;3.00;;
68951;SDS011;56000;51.146;17.112;2023-08-30T03:56:54;6.40;;;3.00;;
68951;SDS011;56000;51.146;17.112;2023-08-30T03:59:27;4.90;;;3.10;;
68951;SDS011;56000;51.146;17.112;2023-08-30T04:02:00;5.40;;;2.80;;
68951;SDS011;56000;51.146;17.112;2023-08-30T04:04:34;3.50;;;2.50;;
68951;SDS011;56000;51.146;17.112;2023-08-30T04:07:07;4.80;;;2.80;;
68951;SDS011;56000;51.146;17.112;2023-08-30T04:09:40;5.70;;;3.00;;
68951;SDS011;56000;51.146;17.112;2023-08-30T04:12:13;6.50;;;2.40;;
68951;SDS011;56000;51.146;17.112;2023-08-30T04:14:46;3.00;;;2.50;;
68951;SDS011;56000;51.146;17.112;2023-08-30T04:17:20;3.90;;;2.70;;
68951;SDS011;56000;51.146;17.112;2023-08-30T04:19:54;3.30;;;2.70;;
68951;SDS011;56000;51.146;17.112;2023-08-30T04:22:27;3.90;;;2.90;;
68951;SDS011;56000;51.146;17.112;2023-08-30T04:25:00;3.60;;;2.60;;
68951;SDS011;56000;51.146;17.112;2023-08-30T04:27:33;6.30;;;2.90;;
68951;SDS011;56000;51.146;17.112;2023-08-30T04:30:09;4.30;;;2.70;;
68951;SDS011;56000;51.146;17.112;2023-08-30T04:32:43;3.60;;;2.80;;
68951;SDS011;56000;51.146;17.112;2023-08-30T04:35:17;4.80;;;3.00;;
68951;SDS011;56000;51.146;17.112;2023-08-30T04:37:50;4.30;;;2.70;;
68951;SDS011;56000;51.146;17.112;2023-08-30T04:40:23;3.80;;;2.70;;
68951;SDS011;56000;51.146;17.112;2023-08-30T04:42:56;5.20;;;2.80;;
68951;SDS011;56000;51.146;17.112;2023-08-30T04:45:30;6.30;;;3.00;;
68951;SDS011;56000;51.146;17.112;2023-08-30T04:48:08;5.40;;;3.20;;
68951;SDS011;56000;51.146;17.112;2023-08-30T04:50:42;6.50;;;3.30;;
68951;SDS011;56000;51.146;17.112;2023-08-30T04:53:15;5.80;;;3.30;;
68951;SDS011;56000;51.146;17.112;2023-08-30T04:55:48;6.10;;;2.70;;
68951;SDS011;56000;51.146;17.112;2023-08-30T04:58:22;4.20;;;2.50;;
68951;SDS011;56000;51.146;17.112;2023-08-30T05:00:56;4.40;;;2.80;;
68951;SDS011;56000;51.146;17.112;2023-08-30T05:03:29;4.30;;;2.90;;
68951;SDS011;56000;51.146;17.112;2023-08-30T05:06:02;4.70;;;2.40;;
68951;SDS011;56000;51.146;17.112;2023-08-30T05:08:36;2.90;;;2.00;;
68951;SDS011;56000;51.146;17.112;2023-08-30T05:11:09;2.40;;;2.10;;
68951;SDS011;56000;51.146;17.112;2023-08-30T05:13:43;3.10;;;1.90;;
68951;SDS011;56000;51.146;17.112;2023-08-30T05:16:16;3.60;;;1.90;;
68951;SDS011;56000;51.146;17.112;2023-08-30T05:18:50;2.10;;;1.80;;
68951;SDS011;56000;51.146;17.112;2023-08-30T05:21:23;2.70;;;2.00;;
68951;SDS011;56000;51.146;17.112;2023-08-30T05:23:57;4.50;;;2.00;;
68951;SDS011;56000;51.146;17.112;2023-08-30T05:26:30;3.70;;;2.10;;
68951;SDS011;56000;51.146;17.112;2023-08-30T05:29:03;2.50;;;2.00;;
68951;SDS011;56000;51.146;17.112;2023-08-30T05:31:36;2.10;;;1.80;;
68951;SDS011;56000;51.146;17.112;2023-08-30T05:34:48;3.30;;;1.90;;
68951;SDS011;56000;51.146;17.112;2023-08-30T05:37:28;2.30;;;2.00;;
68951;SDS011;56000;51.146;17.112;2023-08-30T05:40:19;2.30;;;1.80;;
68951;SDS011;56000;51.146;17.112;2023-08-30T05:42:53;3.40;;;1.60;;
68951;SDS011;56000;51.146;17.112;2023-08-30T05:45:26;3.40;;;2.20;;
68951;SDS011;56000;51.146;17.112;2023-08-30T05:47:59;4.00;;;1.60;;
68951;SDS011;56000;51.146;17.112;2023-08-30T05:50:33;4.90;;;2.20;;
68951;SDS011;56000;51.146;17.112;2023-08-30T05:53:06;2.90;;;1.70;;
68951;SDS011;56000;51.146;17.112;2023-08-30T05:55:40;1.80;;;1.70;;
68951;SDS011;56000;51.146;17.112;2023-08-30T05:58:13;4.40;;;1.90;;
68951;SDS011;56000;51.146;17.112;2023-08-30T06:00:47;2.10;;;1.90;;
68951;SDS011;56000;51.146;17.112;2023-08-30T06:03:20;1.60;;;1.40;;
68951;SDS011;56000;51.146;17.112;2023-08-30T06:05:54;2.10;;;1.70;;
68951;SDS011;56000;51.146;17.112;2023-08-30T06:08:27;5.60;;;1.40;;
68951;SDS011;56000;51.146;17.112;2023-08-30T06:11:00;3.60;;;1.60;;
68951;SDS011;56000;51.146;17.112;2023-08-30T06:13:33;2.90;;;1.50;;
68951;SDS011;56000;51.146;17.112;2023-08-30T06:16:07;1.50;;;1.30;;
68951;SDS011;56000;51.146;17.112;2023-08-30T06:18:40;3.20;;;1.40;;
68951;SDS011;56000;51.146;17.112;2023-08-30T06:21:13;1.30;;;1.20;;
68951;SDS011;56000;51.146;17.112;2023-08-30T06:23:47;2.10;;;1.30;;
68951;SDS011;56000;51.146;17.112;2023-08-30T06:26:20;2.50;;;1.20;;
68951;SDS011;56000;51.146;17.112;2023-08-30T06:28:53;1.30;;;1.20;;
68951;SDS011;56000;51.146;17.112;2023-08-30T06:34:05;1.90;;;1.30;;
68951;SDS011;56000;51.146;17.112;2023-08-30T06:36:38;3.60;;;1.30;;
68951;SDS011;56000;51.146;17.112;2023-08-30T06:39:11;2.50;;;1.40;;
68951;SDS011;56000;51.146;17.112;2023-08-30T06:41:44;1.30;;;1.10;;
68951;SDS011;56000;51.146;17.112;2023-08-30T06:44:17;1.40;;;1.10;;
68951;SDS011;56000;51.146;17.112;2023-08-30T06:46:51;3.10;;;1.90;;
68951;SDS011;56000;51.146;17.112;2023-08-30T06:49:25;1.90;;;1.00;;
68951;SDS011;56000;51.146;17.112;2023-08-30T06:51:58;0.90;;;0.90;;
68951;SDS011;56000;51.146;17.112;2023-08-30T06:54:35;1.40;;;1.00;;
68951;SDS011;56000;51.146;17.112;2023-08-30T06:57:10;1.20;;;1.10;;
68951;SDS011;56000;51.146;17.112;2023-08-30T06:59:48;2.20;;;1.00;;
68951;SDS011;56000;51.146;17.112;2023-08-30T07:02:22;1.00;;;1.00;;
68951;SDS011;56000;51.146;17.112;2023-08-30T07:04:55;2.10;;;1.00;;
68951;SDS011;56000;51.146;17.112;2023-08-30T07:07:28;0.80;;;0.80;;
68951;SDS011;56000;51.146;17.112;2023-08-30T07:10:01;0.80;;;0.80;;
68951;SDS011;56000;51.146;17.112;2023-08-30T07:12:35;1.10;;;0.90;;
68951;SDS011;56000;51.146;17.112;2023-08-30T07:15:09;0.90;;;0.90;;
68951;SDS011;56000;51.146;17.112;2023-08-30T07:17:42;1.00;;;1.00;;
68951;SDS011;56000;51.146;17.112;2023-08-30T07:20:36;1.90;;;0.80;;
68951;SDS011;56000;51.146;17.112;2023-08-30T07:23:09;2.40;;;0.90;;
68951;SDS011;56000;51.146;17.112;2023-08-30T07:25:43;0.90;;;0.90;;
68951;SDS011;56000;51.146;17.112;2023-08-30T07:28:16;0.80;;;0.80;;
68951;SDS011;56000;51.146;17.112;2023-08-30T07:30:49;0.70;;;0.70;;
68951;SDS011;56000;51.146;17.112;2023-08-30T07:33:22;0.80;;;0.80;;
68951;SDS011;56000;51.146;17.112;2023-08-30T07:35:56;0.80;;;0.80;;
68951;SDS011;56000;51.146;17.112;2023-08-30T07:38:29;2.00;;;1.00;;
68951;SDS011;56000;51.146;17.112;2023-08-30T07:41:03;1.00;;;1.00;;
68951;SDS011;56000;51.146;17.112;2023-08-30T07:43:36;0.90;;;0.90;;
68951;SDS011;56000;51.146;17.112;2023-08-30T07:46:09;0.80;;;0.80;;
68951;SDS011;56000;51.146;17.112;2023-08-30T07:48:42;1.70;;;1.00;;
68951;SDS011;56000;51.146;17.112;2023-08-30T07:51:15;0.90;;;0.90;;
68951;SDS011;56000;51.146;17.112;2023-08-30T07:53:49;0.70;;;0.70;;
68951;SDS011;56000;51.146;17.112;2023-08-30T07:56:22;1.10;;;0.90;;
68951;SDS011;56000;51.146;17.112;2023-08-30T07:58:56;2.60;;;1.00;;
68951;SDS011;56000;51.146;17.112;2023-08-30T08:01:29;0.80;;;0.80;;
68951;SDS011;56000;51.146;17.112;2023-08-30T08:04:03;1.10;;;1.10;;
68951;SDS011;56000;51.146;17.112;2023-08-30T08:06:37;0.70;;;0.70;;
68951;SDS011;56000;51.146;17.112;2023-08-30T08:09:10;0.90;;;0.80;;
68951;SDS011;56000;51.146;17.112;2023-08-30T08:11:43;1.90;;;1.10;;
68951;SDS011;56000;51.146;17.112;2023-08-30T08:14:16;1.10;;;1.10;;
68951;SDS011;56000;51.146;17.112;2023-08-30T08:16:50;1.20;;;1.10;;
68951;SDS011;56000;51.146;17.112;2023-08-30T08:19:23;3.30;;;1.00;;
68951;SDS011;56000;51.146;17.112;2023-08-30T08:21:56;2.60;;;1.00;;
68951;SDS011;56000;51.146;17.112;2023-08-30T08:24:29;3.40;;;1.20;;
68951;SDS011;56000;51.146;17.112;2023-08-30T08:27:03;0.80;;;0.80;;
68951;SDS011;56000;51.146;17.112;2023-08-30T08:29:36;3.50;;;1.20;;
68951;SDS011;56000;51.146;17.112;2023-08-30T08:32:09;1.20;;;0.90;;
68951;SDS011;56000;51.146;17.112;2023-08-30T08:34:42;1.50;;;1.30;;
68951;SDS011;56000;51.146;17.112;2023-08-30T08:37:16;1.40;;;1.30;;
68951;SDS011;56000;51.146;17.112;2023-08-30T08:39:49;1.50;;;1.40;;
68951;SDS011;56000;51.146;17.112;2023-08-30T08:42:22;1.30;;;1.30;;
68951;SDS011;56000;51.146;17.112;2023-08-30T08:44:56;1.60;;;1.30;;
68951;SDS011;56000;51.146;17.112;2023-08-30T08:47:31;2.00;;;1.40;;
68951;SDS011;56000;51.146;17.112;2023-08-30T08:50:05;1.30;;;1.30;;
68951;SDS011;56000;51.146;17.112;2023-08-30T08:52:39;3.40;;;1.50;;
68951;SDS011;56000;51.146;17.112;2023-08-30T08:55:19;2.70;;;1.30;;
68951;SDS011;56000;51.146;17.112;2023-08-30T08:57:53;1.70;;;1.60;;
68951;SDS011;56000;51.146;17.112;2023-08-30T09:00:27;1.40;;;1.30;;
68951;SDS011;56000;51.146;17.112;2023-08-30T09:03:03;1.60;;;1.50;;
68951;SDS011;56000;51.146;17.112;2023-08-30T09:05:42;1.50;;;1.50;;
68951;SDS011;56000;51.146;17.112;2023-08-30T09:08:17;1.30;;;1.20;;
68951;SDS011;56000;51.146;17.112;2023-08-30T09:10:51;1.10;;;1.10;;
68951;SDS011;56000;51.146;17.112;2023-08-30T09:13:24;3.20;;;1.40;;
68951;SDS011;56000;51.146;17.112;2023-08-30T09:15:57;1.80;;;1.40;;
68951;SDS011;56000;51.146;17.112;2023-08-30T09:18:30;1.80;;;1.10;;
68951;SDS011;56000;51.146;17.112;2023-08-30T09:21:10;2.90;;;1.30;;
68951;SDS011;56000;51.146;17.112;2023-08-30T09:23:43;1.00;;;0.90;;
68951;SDS011;56000;51.146;17.112;2023-08-30T09:26:16;1.80;;;1.20;;
68951;SDS011;56000;51.146;17.112;2023-08-30T09:28:49;3.50;;;1.10;;
68951;SDS011;56000;51.146;17.112;2023-08-30T09:31:22;1.10;;;1.10;;
68951;SDS011;56000;51.146;17.112;2023-08-30T09:34:00;1.30;;;1.20;;
68951;SDS011;56000;51.146;17.112;2023-08-30T09:36:37;2.50;;;1.00;;
68951;SDS011;56000;51.146;17.112;2023-08-30T09:39:12;1.50;;;0.90;;
68951;SDS011;56000;51.146;17.112;2023-08-30T09:41:46;1.00;;;1.00;;
68951;SDS011;56000;51.146;17.112;2023-08-30T09:44:21;2.90;;;1.20;;
68951;SDS011;56000;51.146;17.112;2023-08-30T09:46:55;1.10;;;1.00;;
68951;SDS011;56000;51.146;17.112;2023-08-30T09:49:29;4.00;;;1.40;;
68951;SDS011;56000;51.146;17.112;2023-08-30T09:52:06;1.10;;;1.10;;
68951;SDS011;56000;51.146;17.112;2023-08-30T09:54:41;2.70;;;1.10;;
68951;SDS011;56000;51.146;17.112;2023-08-30T09:57:16;2.10;;;1.20;;
68951;SDS011;56000;51.146;17.112;2023-08-30T09:59:49;1.10;;;1.10;;
68951;SDS011;56000;51.146;17.112;2023-08-30T10:02:23;1.20;;;1.00;;
68951;SDS011;56000;51.146;17.112;2023-08-30T10:04:56;0.80;;;0.80;;
68951;SDS011;56000;51.146;17.112;2023-08-30T10:07:31;1.00;;;1.00;;
68951;SDS011;56000;51.146;17.112;2023-08-30T10:10:09;1.60;;;1.20;;
68951;SDS011;56000;51.146;17.112;2023-08-30T10:12:44;1.10;;;1.00;;
68951;SDS011;56000;51.146;17.112;2023-08-30T10:15:28;1.60;;;1.20;;
68951;SDS011;56000;51.146;17.112;2023-08-30T10:18:05;1.00;;;1.00;;
68951;SDS011;56000;51.146;17.112;2023-08-30T10:20:40;2.90;;;1.50;;
68951;SDS011;56000;51.146;17.112;2023-08-30T10:23:15;1.50;;;1.30;;
68951;SDS011;56000;51.146;17.112;2023-08-30T10:25:49;1.50;;;1.40;;
68951;SDS011;56000;51.146;17.112;2023-08-30T10:28:24;1.60;;;1.50;;
68951;SDS011;56000;51.146;17.112;2023-08-30T10:30:59;1.30;;;1.20;;
68951;SDS011;56000;51.146;17.112;2023-08-30T10:33:43;1.50;;;1.40;;
68951;SDS011;56000;51.146;17.112;2023-08-30T10:36:26;1.30;;;1.20;;
68951;SDS011;56000;51.146;17.112;2023-08-30T10:38:59;1.30;;;1.20;;
68951;SDS011;56000;51.146;17.112;2023-08-30T10:41:55;1.40;;;1.20;;
68951;SDS011;56000;51.146;17.112;2023-08-30T10:44:28;2.20;;;1.40;;
68951;SDS011;56000;51.146;17.112;2023-08-30T10:47:04;3.40;;;1.60;;
68951;SDS011;56000;51.146;17.112;2023-08-30T10:49:43;2.20;;;2.00;;
68951;SDS011;56000;51.146;17.112;2023-08-30T10:52:17;2.40;;;2.20;;
68951;SDS011;56000;51.146;17.112;2023-08-30T10:54:51;2.90;;;2.00;;
68951;SDS011;56000;51.146;17.112;2023-08-30T10:57:26;2.20;;;2.00;;
68951;SDS011;56000;51.146;17.112;2023-08-30T11:00:19;2.40;;;2.20;;
68951;SDS011;56000;51.146;17.112;2023-08-30T11:02:57;4.70;;;2.10;;
68951;SDS011;56000;51.146;17.112;2023-08-30T11:05:30;3.20;;;2.10;;
68951;SDS011;56000;51.146;17.112;2023-08-30T11:08:04;4.20;;;2.00;;
68951;SDS011;56000;51.146;17.112;2023-08-30T11:10:43;2.60;;;2.40;;
68951;SDS011;56000;51.146;17.112;2023-08-30T11:13:17;3.60;;;2.40;;
68951;SDS011;56000;51.146;17.112;2023-08-30T11:15:53;3.00;;;2.60;;
68951;SDS011;56000;51.146;17.112;2023-08-30T11:18:30;3.00;;;2.60;;
68951;SDS011;56000;51.146;17.112;2023-08-30T11:21:07;4.00;;;2.70;;
68951;SDS011;56000;51.146;17.112;2023-08-30T11:23:42;3.20;;;2.90;;
68951;SDS011;56000;51.146;17.112;2023-08-30T11:26:16;5.00;;;3.40;;
68951;SDS011;56000;51.146;17.112;2023-08-30T11:28:49;3.20;;;2.70;;
68951;SDS011;56000;51.146;17.112;2023-08-30T11:31:23;3.90;;;2.70;;
68951;SDS011;56000;51.146;17.112;2023-08-30T11:33:58;3.20;;;2.60;;
68951;SDS011;56000;51.146;17.112;2023-08-30T11:36:32;2.80;;;2.30;;
68951;SDS011;56000;51.146;17.112;2023-08-30T11:39:08;2.60;;;2.40;;
68951;SDS011;56000;51.146;17.112;2023-08-30T11:41:42;2.60;;;2.40;;
68951;SDS011;56000;51.146;17.112;2023-08-30T11:44:15;3.20;;;2.30;;
68951;SDS011;56000;51.146;17.112;2023-08-30T11:46:48;2.00;;;1.90;;
68951;SDS011;56000;51.146;17.112;2023-08-30T11:49:28;1.50;;;1.40;;
68951;SDS011;56000;51.146;17.112;2023-08-30T11:52:04;2.60;;;1.70;;
68951;SDS011;56000;51.146;17.112;2023-08-30T11:54:38;1.90;;;1.70;;
68951;SDS011;56000;51.146;17.112;2023-08-30T11:57:11;1.60;;;1.20;;
68951;SDS011;56000;51.146;17.112;2023-08-30T11:59:44;1.80;;;1.30;;
68951;SDS011;56000;51.146;17.112;2023-08-30T12:02:20;1.60;;;1.50;;
68951;SDS011;56000;51.146;17.112;2023-08-30T12:04:55;1.40;;;1.30;;
68951;SDS011;56000;51.146;17.112;2023-08-30T12:07:30;1.50;;;1.40;;
68951;SDS011;56000;51.146;17.112;2023-08-30T12:10:10;2.40;;;2.20;;
68951;SDS011;56000;51.146;17.112;2023-08-30T12:12:47;2.80;;;2.60;;
68951;SDS011;56000;51.146;17.112;2023-08-30T12:15:22;3.00;;;2.70;;
68951;SDS011;56000;51.146;17.112;2023-08-30T12:17:57;2.70;;;2.50;;
68951;SDS011;56000;51.146;17.112;2023-08-30T12:20:39;4.50;;;1.80;;
68951;SDS011;56000;51.146;17.112;2023-08-30T12:23:22;2.00;;;1.20;;
68951;SDS011;56000;51.146;17.112;2023-08-30T12:26:00;1.40;;;1.30;;
68951;SDS011;56000;51.146;17.112;2023-08-30T12:28:36;2.10;;;1.50;;
68951;SDS011;56000;51.146;17.112;2023-08-30T12:31:11;2.70;;;1.30;;
68951;SDS011;56000;51.146;17.112;2023-08-30T12:33:44;1.40;;;1.30;;
68951;SDS011;56000;51.146;17.112;2023-08-30T12:36:17;2.30;;;1.30;;
68951;SDS011;56000;51.146;17.112;2023-08-30T12:38:50;1.80;;;1.20;;
68951;SDS011;56000;51.146;17.112;2023-08-30T12:41:23;1.00;;;1.00;;
68951;SDS011;56000;51.146;17.112;2023-08-30T12:43:57;1.50;;;1.10;;
68951;SDS011;56000;51.146;17.112;2023-08-30T12:46:34;1.30;;;1.20;;
68951;SDS011;56000;51.146;17.112;2023-08-30T12:49:07;1.00;;;1.00;;
68951;SDS011;56000;51.146;17.112;2023-08-30T12:51:40;0.80;;;0.80;;
68951;SDS011;56000;51.146;17.112;2023-08-30T12:54:13;0.90;;;0.90;;
68951;SDS011;56000;51.146;17.112;2023-08-30T12:56:46;1.70;;;0.90;;
68951;SDS011;56000;51.146;17.112;2023-08-30T12:59:19;1.70;;;1.00;;
68951;SDS011;56000;51.146;17.112;2023-08-30T13:01:52;1.30;;;1.00;;
68951;SDS011;56000;51.146;17.112;2023-08-30T13:04:26;2.30;;;1.00;;
68951;SDS011;56000;51.146;17.112;2023-08-30T13:06:59;2.20;;;1.00;;
68951;SDS011;56000;51.146;17.112;2023-08-30T13:09:32;1.00;;;0.80;;
68951;SDS011;56000;51.146;17.112;2023-08-30T13:12:06;1.40;;;1.00;;
68951;SDS011;56000;51.146;17.112;2023-08-30T13:14:40;1.90;;;0.90;;
68951;SDS011;56000;51.146;17.112;2023-08-30T13:17:13;1.00;;;1.00;;
68951;SDS011;56000;51.146;17.112;2023-08-30T13:19:47;3.50;;;1.30;;
68951;SDS011;56000;51.146;17.112;2023-08-30T13:22:21;0.90;;;0.90;;
68951;SDS011;56000;51.146;17.112;2023-08-30T13:24:54;2.50;;;1.10;;
68951;SDS011;56000;51.146;17.112;2023-08-30T13:27:29;0.90;;;0.80;;
68951;SDS011;56000;51.146;17.112;2023-08-30T13:30:03;1.40;;;1.10;;
68951;SDS011;56000;51.146;17.112;2023-08-30T13:32:37;1.40;;;1.00;;
68951;SDS011;56000;51.146;17.112;2023-08-30T13:35:10;1.50;;;1.10;;
68951;SDS011;56000;51.146;17.112;2023-08-30T13:37:43;2.40;;;1.10;;
68951;SDS011;56000;51.146;17.112;2023-08-30T13:40:17;3.80;;;1.20;;
68951;SDS011;56000;51.146;17.112;2023-08-30T13:42:50;0.90;;;0.90;;
68951;SDS011;56000;51.146;17.112;2023-08-30T13:45:23;1.70;;;1.10;;
68951;SDS011;56000;51.146;17.112;2023-08-30T13:47:56;1.50;;;1.20;;
68951;SDS011;56000;51.146;17.112;2023-08-30T13:50:30;2.60;;;1.50;;
68951;SDS011;56000;51.146;17.112;2023-08-30T13:53:04;3.70;;;1.10;;
68951;SDS011;56000;51.146;17.112;2023-08-30T13:55:38;1.20;;;1.10;;
68951;SDS011;56000;51.146;17.112;2023-08-30T13:58:11;1.50;;;1.10;;
68951;SDS011;56000;51.146;17.112;2023-08-30T14:00:44;1.50;;;1.30;;
68951;SDS011;56000;51.146;17.112;2023-08-30T14:03:17;3.70;;;1.50;;
68951;SDS011;56000;51.146;17.112;2023-08-30T14:05:51;3.50;;;1.50;;
68951;SDS011;56000;51.146;17.112;2023-08-30T14:08:24;1.70;;;1.50;;
68951;SDS011;56000;51.146;17.112;2023-08-30T14:10:57;1.20;;;1.10;;
68951;SDS011;56000;51.146;17.112;2023-08-30T14:13:30;0.90;;;0.90;;
68951;SDS011;56000;51.146;17.112;2023-08-30T14:16:04;1.50;;;1.30;;
68951;SDS011;56000;51.146;17.112;2023-08-30T14:18:37;1.50;;;0.90;;
68951;SDS011;56000;51.146;17.112;2023-08-30T14:21:10;0.80;;;0.80;;
68951;SDS011;56000;51.146;17.112;2023-08-30T14:23:43;0.70;;;0.70;;
68951;SDS011;56000;51.146;17.112;2023-08-30T14:26:16;1.10;;;1.00;;
68951;SDS011;56000;51.146;17.112;2023-08-30T14:28:49;1.00;;;1.00;;
68951;SDS011;56000;51.146;17.112;2023-08-30T14:31:22;2.80;;;0.90;;
68951;SDS011;56000;51.146;17.112;2023-08-30T14:33:57;1.10;;;1.00;;
68951;SDS011;56000;51.146;17.112;2023-08-30T14:36:30;2.10;;;1.00;;
68951;SDS011;56000;51.146;17.112;2023-08-30T14:39:04;1.80;;;1.00;;
68951;SDS011;56000;51.146;17.112;2023-08-30T14:41:37;1.60;;;0.90;;
68951;SDS011;56000;51.146;17.112;2023-08-30T14:44:10;1.40;;;1.10;;
68951;SDS011;56000;51.146;17.112;2023-08-30T14:46:43;1.30;;;1.00;;
68951;SDS011;56000;51.146;17.112;2023-08-30T14:49:17;1.10;;;1.00;;
68951;SDS011;56000;51.146;17.112;2023-08-30T14:51:50;1.00;;;1.00;;
68951;SDS011;56000;51.146;17.112;2023-08-30T14:54:23;1.80;;;1.50;;
68951;SDS011;56000;51.146;17.112;2023-08-30T14:56:56;1.30;;;1.10;;
68951;SDS011;56000;51.146;17.112;2023-08-30T14:59:30;2.30;;;1.00;;
68951;SDS011;56000;51.146;17.112;2023-08-30T15:02:03;1.50;;;1.20;;
68951;SDS011;56000;51.146;17.112;2023-08-30T15:04:37;3.20;;;1.30;;
68951;SDS011;56000;51.146;17.112;2023-08-30T15:07:10;1.60;;;1.10;;
68951;SDS011;56000;51.146;17.112;2023-08-30T15:09:45;2.80;;;1.40;;
68951;SDS011;56000;51.146;17.112;2023-08-30T15:12:18;1.60;;;1.30;;
68951;SDS011;56000;51.146;17.112;2023-08-30T15:14:51;1.70;;;1.10;;
68951;SDS011;56000;51.146;17.112;2023-08-30T15:17:25;2.80;;;1.30;;
68951;SDS011;56000;51.146;17.112;2023-08-30T15:19:59;2.40;;;1.30;;